sensor_id;sensor_type;location;lat;lon;timestamp;P1;durP1;ratioP1;P2;durP2;ratioP2
6689;SDS011;3382;51.576;8.076;2023-03-14T00:02:15;4.47;;;1.60;;
6689;SDS011;3382;51.576;8.076;2023-03-14T00:04:41;3.33;;;1.40;;
6689;SDS011;3382;51.576;8.076;2023-03-14T00:07:07;4.33;;;1.67;;
6689;SDS011;3382;51.576;8.076;2023-03-14T00:09:35;3.23;;;1.27;;
6689;SDS011;3382;51.576;8.076;2023-03-14T00:12:00;3.67;;;1.50;;
6689;SDS011;3382;51.576;8.076;2023-03-14T00:14:28;4.10;;;1.67;;
6689;SDS011;3382;51.576;8.076;2023-03-14T00:16:54;3.77;;;1.47;;
6689;SDS011;3382;51.576;8.076;2023-03-14T00:19:19;4.73;;;1.63;;
6689;SDS011;3382;51.576;8.076;2023-03-14T00:21:45;5.37;;;1.70;;
6689;SDS011;3382;51.576;8.076;2023-03-14T00:24:11;2.63;;;1.40;;
6689;SDS011;3382;51.576;8.076;2023-03-14T00:26:37;3.17;;;1.60;;
6689;SDS011;3382;51.576;8.076;2023-03-14T00:29:03;5.87;;;1.67;;
6689;SDS011;3382;51.576;8.076;2023-03-14T00:31:28;3.80;;;1.57;;
6689;SDS011;3382;51.576;8.076;2023-03-14T00:33:54;3.80;;;1.50;;
6689;SDS011;3382;51.576;8.076;2023-03-14T00:36:20;3.87;;;1.80;;
6689;SDS011;3382;51.576;8.076;2023-03-14T00:38:46;3.20;;;1.47;;
6689;SDS011;3382;51.576;8.076;2023-03-14T00:41:14;4.20;;;1.97;;
6689;SDS011;3382;51.576;8.076;2023-03-14T00:43:42;6.03;;;1.80;;
6689;SDS011;3382;51.576;8.076;2023-03-14T00:46:08;2.60;;;1.60;;
6689;SDS011;3382;51.576;8.076;2023-03-14T00:48:34;3.30;;;1.40;;
6689;SDS011;3382;51.576;8.076;2023-03-14T00:51:00;5.10;;;1.63;;
6689;SDS011;3382;51.576;8.076;2023-03-14T00:53:27;4.03;;;1.83;;
6689;SDS011;3382;51.576;8.076;2023-03-14T00:55:52;3.37;;;1.50;;
6689;SDS011;3382;51.576;8.076;2023-03-14T00:58:18;4.00;;;1.40;;
6689;SDS011;3382;51.576;8.076;2023-03-14T01:00:44;2.83;;;1.60;;
6689;SDS011;3382;51.576;8.076;2023-03-14T01:03:10;3.23;;;1.50;;
6689;SDS011;3382;51.576;8.076;2023-03-14T01:05:37;2.03;;;1.37;;
6689;SDS011;3382;51.576;8.076;2023-03-14T01:08:03;3.47;;;1.30;;
6689;SDS011;3382;51.576;8.076;2023-03-14T01:10:29;5.00;;;1.33;;
6689;SDS011;3382;51.576;8.076;2023-03-14T01:12:55;4.10;;;1.33;;
6689;SDS011;3382;51.576;8.076;2023-03-14T01:15:21;4.87;;;1.40;;
6689;SDS011;3382;51.576;8.076;2023-03-14T01:17:47;1.83;;;1.30;;
6689;SDS011;3382;51.576;8.076;2023-03-14T01:20:13;4.00;;;1.47;;
6689;SDS011;3382;51.576;8.076;2023-03-14T01:22:40;5.87;;;1.40;;
6689;SDS011;3382;51.576;8.076;2023-03-14T01:25:08;2.23;;;1.10;;
6689;SDS011;3382;51.576;8.076;2023-03-14T01:27:35;4.47;;;1.53;;
6689;SDS011;3382;51.576;8.076;2023-03-14T01:30:02;4.33;;;1.57;;
6689;SDS011;3382;51.576;8.076;2023-03-14T01:32:28;4.70;;;1.67;;
6689;SDS011;3382;51.576;8.076;2023-03-14T01:34:54;4.97;;;1.73;;
6689;SDS011;3382;51.576;8.076;2023-03-14T01:37:20;3.97;;;1.17;;
6689;SDS011;3382;51.576;8.076;2023-03-14T01:39:48;5.70;;;1.40;;
6689;SDS011;3382;51.576;8.076;2023-03-14T01:42:14;3.37;;;1.50;;
6689;SDS011;3382;51.576;8.076;2023-03-14T01:44:50;4.77;;;1.33;;
6689;SDS011;3382;51.576;8.076;2023-03-14T01:47:16;6.03;;;1.73;;
6689;SDS011;3382;51.576;8.076;2023-03-14T01:49:42;3.67;;;1.60;;
6689;SDS011;3382;51.576;8.076;2023-03-14T01:54:51;3.87;;;1.40;;
6689;SDS011;3382;51.576;8.076;2023-03-14T01:57:28;2.73;;;1.37;;
6689;SDS011;3382;51.576;8.076;2023-03-14T01:59:59;5.53;;;1.40;;
6689;SDS011;3382;51.576;8.076;2023-03-14T02:02:33;4.00;;;1.50;;
6689;SDS011;3382;51.576;8.076;2023-03-14T02:04:59;6.07;;;2.00;;
6689;SDS011;3382;51.576;8.076;2023-03-14T02:09:55;1.60;;;0.90;;
6689;SDS011;3382;51.576;8.076;2023-03-14T02:12:22;2.50;;;0.97;;
6689;SDS011;3382;51.576;8.076;2023-03-14T02:14:48;0.63;;;0.63;;
6689;SDS011;3382;51.576;8.076;2023-03-14T02:17:14;2.53;;;1.00;;
6689;SDS011;3382;51.576;8.076;2023-03-14T02:22:33;3.70;;;1.00;;
6689;SDS011;3382;51.576;8.076;2023-03-14T02:25:04;2.63;;;1.07;;
6689;SDS011;3382;51.576;8.076;2023-03-14T02:27:50;1.47;;;0.97;;
6689;SDS011;3382;51.576;8.076;2023-03-14T02:30:19;3.87;;;1.00;;
6689;SDS011;3382;51.576;8.076;2023-03-14T02:32:47;1.00;;;0.73;;
6689;SDS011;3382;51.576;8.076;2023-03-14T02:35:24;2.07;;;0.93;;
6689;SDS011;3382;51.576;8.076;2023-03-14T02:37:55;2.30;;;1.00;;
6689;SDS011;3382;51.576;8.076;2023-03-14T02:40:26;4.40;;;1.10;;
6689;SDS011;3382;51.576;8.076;2023-03-14T02:42:51;1.97;;;1.10;;
6689;SDS011;3382;51.576;8.076;2023-03-14T02:47:43;4.07;;;1.50;;
6689;SDS011;3382;51.576;8.076;2023-03-14T02:50:14;1.57;;;1.00;;
6689;SDS011;3382;51.576;8.076;2023-03-14T02:52:43;2.63;;;1.20;;
6689;SDS011;3382;51.576;8.076;2023-03-14T02:55:09;3.50;;;1.10;;
6689;SDS011;3382;51.576;8.076;2023-03-14T02:57:35;3.13;;;1.20;;
6689;SDS011;3382;51.576;8.076;2023-03-14T03:00:01;2.10;;;0.83;;
6689;SDS011;3382;51.576;8.076;2023-03-14T03:02:30;3.10;;;1.10;;
6689;SDS011;3382;51.576;8.076;2023-03-14T03:04:56;2.13;;;1.00;;
6689;SDS011;3382;51.576;8.076;2023-03-14T03:07:22;2.17;;;1.10;;
6689;SDS011;3382;51.576;8.076;2023-03-14T03:09:47;7.30;;;1.50;;
6689;SDS011;3382;51.576;8.076;2023-03-14T03:12:13;4.60;;;1.30;;
6689;SDS011;3382;51.576;8.076;2023-03-14T03:14:38;2.67;;;1.07;;
6689;SDS011;3382;51.576;8.076;2023-03-14T03:17:04;1.77;;;1.07;;
6689;SDS011;3382;51.576;8.076;2023-03-14T03:19:30;4.77;;;1.40;;
6689;SDS011;3382;51.576;8.076;2023-03-14T03:21:57;2.70;;;1.07;;
6689;SDS011;3382;51.576;8.076;2023-03-14T03:24:22;4.83;;;1.40;;
6689;SDS011;3382;51.576;8.076;2023-03-14T03:26:49;2.57;;;1.17;;
6689;SDS011;3382;51.576;8.076;2023-03-14T03:29:14;4.73;;;1.10;;
6689;SDS011;3382;51.576;8.076;2023-03-14T03:31:40;2.57;;;1.00;;
6689;SDS011;3382;51.576;8.076;2023-03-14T03:34:06;3.93;;;1.37;;
6689;SDS011;3382;51.576;8.076;2023-03-14T03:36:32;3.37;;;1.20;;
6689;SDS011;3382;51.576;8.076;2023-03-14T03:38:57;3.80;;;1.20;;
6689;SDS011;3382;51.576;8.076;2023-03-14T03:41:23;4.10;;;1.10;;
6689;SDS011;3382;51.576;8.076;2023-03-14T03:43:49;2.77;;;1.17;;
6689;SDS011;3382;51.576;8.076;2023-03-14T03:46:14;3.40;;;1.20;;
6689;SDS011;3382;51.576;8.076;2023-03-14T03:48:40;2.10;;;1.37;;
6689;SDS011;3382;51.576;8.076;2023-03-14T03:51:06;7.37;;;1.33;;
6689;SDS011;3382;51.576;8.076;2023-03-14T03:53:31;3.47;;;1.37;;
6689;SDS011;3382;51.576;8.076;2023-03-14T03:55:57;2.07;;;1.37;;
6689;SDS011;3382;51.576;8.076;2023-03-14T03:58:23;2.37;;;1.40;;
6689;SDS011;3382;51.576;8.076;2023-03-14T04:00:55;3.10;;;1.20;;
6689;SDS011;3382;51.576;8.076;2023-03-14T04:03:20;2.67;;;1.27;;
6689;SDS011;3382;51.576;8.076;2023-03-14T04:05:46;3.67;;;1.50;;
6689;SDS011;3382;51.576;8.076;2023-03-14T04:08:11;4.23;;;1.23;;
6689;SDS011;3382;51.576;8.076;2023-03-14T04:10:37;1.77;;;1.23;;
6689;SDS011;3382;51.576;8.076;2023-03-14T04:13:03;3.70;;;1.50;;
6689;SDS011;3382;51.576;8.076;2023-03-14T04:15:28;4.10;;;1.60;;
6689;SDS011;3382;51.576;8.076;2023-03-14T04:17:57;4.97;;;1.40;;
6689;SDS011;3382;51.576;8.076;2023-03-14T04:20:23;2.63;;;1.20;;
6689;SDS011;3382;51.576;8.076;2023-03-14T04:22:49;5.27;;;1.70;;
6689;SDS011;3382;51.576;8.076;2023-03-14T04:25:14;4.53;;;1.53;;
6689;SDS011;3382;51.576;8.076;2023-03-14T04:27:42;6.63;;;1.60;;
6689;SDS011;3382;51.576;8.076;2023-03-14T04:30:08;3.60;;;1.30;;
6689;SDS011;3382;51.576;8.076;2023-03-14T04:32:34;3.83;;;1.50;;
6689;SDS011;3382;51.576;8.076;2023-03-14T04:34:59;2.23;;;1.20;;
6689;SDS011;3382;51.576;8.076;2023-03-14T04:37:25;6.77;;;1.80;;
6689;SDS011;3382;51.576;8.076;2023-03-14T04:39:50;3.63;;;1.27;;
6689;SDS011;3382;51.576;8.076;2023-03-14T04:42:16;7.00;;;1.83;;
6689;SDS011;3382;51.576;8.076;2023-03-14T04:44:42;2.93;;;1.33;;
6689;SDS011;3382;51.576;8.076;2023-03-14T04:47:08;8.13;;;1.57;;
6689;SDS011;3382;51.576;8.076;2023-03-14T04:49:33;5.60;;;1.77;;
6689;SDS011;3382;51.576;8.076;2023-03-14T04:51:59;6.07;;;1.87;;
6689;SDS011;3382;51.576;8.076;2023-03-14T04:54:24;5.80;;;1.30;;
6689;SDS011;3382;51.576;8.076;2023-03-14T04:56:50;1.67;;;1.00;;
6689;SDS011;3382;51.576;8.076;2023-03-14T04:59:16;2.93;;;1.33;;
6689;SDS011;3382;51.576;8.076;2023-03-14T05:01:41;1.07;;;1.03;;
6689;SDS011;3382;51.576;8.076;2023-03-14T05:04:07;1.00;;;0.80;;
6689;SDS011;3382;51.576;8.076;2023-03-14T05:06:32;1.97;;;0.97;;
6689;SDS011;3382;51.576;8.076;2023-03-14T05:08:58;3.97;;;1.30;;
6689;SDS011;3382;51.576;8.076;2023-03-14T05:11:23;5.93;;;1.60;;
6689;SDS011;3382;51.576;8.076;2023-03-14T05:13:49;4.40;;;1.57;;
6689;SDS011;3382;51.576;8.076;2023-03-14T05:16:15;1.30;;;1.00;;
6689;SDS011;3382;51.576;8.076;2023-03-14T05:18:40;3.47;;;1.50;;
6689;SDS011;3382;51.576;8.076;2023-03-14T05:21:06;4.33;;;1.53;;
6689;SDS011;3382;51.576;8.076;2023-03-14T05:23:32;5.27;;;1.43;;
6689;SDS011;3382;51.576;8.076;2023-03-14T05:25:57;4.53;;;1.67;;
6689;SDS011;3382;51.576;8.076;2023-03-14T05:28:23;3.43;;;1.70;;
6689;SDS011;3382;51.576;8.076;2023-03-14T05:30:48;6.50;;;1.93;;
6689;SDS011;3382;51.576;8.076;2023-03-14T05:33:14;3.87;;;1.30;;
6689;SDS011;3382;51.576;8.076;2023-03-14T05:35:40;4.33;;;1.93;;
6689;SDS011;3382;51.576;8.076;2023-03-14T05:38:06;3.37;;;1.63;;
6689;SDS011;3382;51.576;8.076;2023-03-14T05:40:32;3.47;;;1.40;;
6689;SDS011;3382;51.576;8.076;2023-03-14T05:42:58;6.47;;;1.43;;
6689;SDS011;3382;51.576;8.076;2023-03-14T05:45:24;4.47;;;1.73;;
6689;SDS011;3382;51.576;8.076;2023-03-14T05:47:50;3.23;;;1.70;;
6689;SDS011;3382;51.576;8.076;2023-03-14T05:50:15;3.67;;;1.50;;
6689;SDS011;3382;51.576;8.076;2023-03-14T05:52:41;6.47;;;1.77;;
6689;SDS011;3382;51.576;8.076;2023-03-14T05:55:07;7.70;;;1.93;;
6689;SDS011;3382;51.576;8.076;2023-03-14T05:57:32;5.30;;;1.70;;
6689;SDS011;3382;51.576;8.076;2023-03-14T05:59:58;4.17;;;1.63;;
6689;SDS011;3382;51.576;8.076;2023-03-14T06:02:27;2.67;;;1.57;;
6689;SDS011;3382;51.576;8.076;2023-03-14T06:04:52;2.60;;;1.50;;
6689;SDS011;3382;51.576;8.076;2023-03-14T06:07:18;2.60;;;1.30;;
6689;SDS011;3382;51.576;8.076;2023-03-14T06:09:44;3.23;;;1.10;;
6689;SDS011;3382;51.576;8.076;2023-03-14T06:12:09;2.73;;;1.00;;
6689;SDS011;3382;51.576;8.076;2023-03-14T06:14:35;5.57;;;1.63;;
6689;SDS011;3382;51.576;8.076;2023-03-14T06:17:00;7.23;;;1.20;;
6689;SDS011;3382;51.576;8.076;2023-03-14T06:19:26;16.33;;;1.53;;
6689;SDS011;3382;51.576;8.076;2023-03-14T06:21:52;3.87;;;1.27;;
6689;SDS011;3382;51.576;8.076;2023-03-14T06:24:17;1.43;;;1.13;;
6689;SDS011;3382;51.576;8.076;2023-03-14T06:26:43;3.20;;;1.40;;
6689;SDS011;3382;51.576;8.076;2023-03-14T06:29:08;2.70;;;1.20;;
6689;SDS011;3382;51.576;8.076;2023-03-14T06:31:34;4.17;;;1.40;;
6689;SDS011;3382;51.576;8.076;2023-03-14T06:34:00;4.20;;;1.30;;
6689;SDS011;3382;51.576;8.076;2023-03-14T06:36:26;4.20;;;1.50;;
6689;SDS011;3382;51.576;8.076;2023-03-14T06:38:51;3.13;;;1.00;;
6689;SDS011;3382;51.576;8.076;2023-03-14T06:41:17;4.77;;;1.10;;
6689;SDS011;3382;51.576;8.076;2023-03-14T06:43:43;2.20;;;1.00;;
6689;SDS011;3382;51.576;8.076;2023-03-14T06:46:09;2.00;;;1.10;;
6689;SDS011;3382;51.576;8.076;2023-03-14T06:48:34;1.97;;;1.10;;
6689;SDS011;3382;51.576;8.076;2023-03-14T06:51:00;2.60;;;1.00;;
6689;SDS011;3382;51.576;8.076;2023-03-14T06:53:25;2.30;;;0.90;;
6689;SDS011;3382;51.576;8.076;2023-03-14T06:55:51;1.87;;;0.90;;
6689;SDS011;3382;51.576;8.076;2023-03-14T06:58:17;3.57;;;1.17;;
6689;SDS011;3382;51.576;8.076;2023-03-14T07:00:42;2.83;;;1.00;;
6689;SDS011;3382;51.576;8.076;2023-03-14T07:03:08;3.10;;;1.50;;
6689;SDS011;3382;51.576;8.076;2023-03-14T07:05:35;0.80;;;0.80;;
6689;SDS011;3382;51.576;8.076;2023-03-14T07:08:00;1.53;;;0.80;;
6689;SDS011;3382;51.576;8.076;2023-03-14T07:10:26;2.73;;;1.07;;
6689;SDS011;3382;51.576;8.076;2023-03-14T07:12:52;0.70;;;0.70;;
6689;SDS011;3382;51.576;8.076;2023-03-14T07:15:18;2.17;;;0.87;;
6689;SDS011;3382;51.576;8.076;2023-03-14T07:17:44;0.60;;;0.60;;
6689;SDS011;3382;51.576;8.076;2023-03-14T07:20:12;3.73;;;2.30;;
6689;SDS011;3382;51.576;8.076;2023-03-14T07:22:38;2.87;;;1.50;;
6689;SDS011;3382;51.576;8.076;2023-03-14T07:25:04;3.67;;;1.93;;
6689;SDS011;3382;51.576;8.076;2023-03-14T07:27:30;0.70;;;0.70;;
6689;SDS011;3382;51.576;8.076;2023-03-14T07:29:56;1.00;;;0.50;;
6689;SDS011;3382;51.576;8.076;2023-03-14T07:32:21;0.43;;;0.43;;
6689;SDS011;3382;51.576;8.076;2023-03-14T07:34:47;0.47;;;0.47;;
6689;SDS011;3382;51.576;8.076;2023-03-14T07:37:13;3.20;;;0.63;;
6689;SDS011;3382;51.576;8.076;2023-03-14T07:39:38;1.33;;;1.03;;
6689;SDS011;3382;51.576;8.076;2023-03-14T07:42:04;0.97;;;0.83;;
6689;SDS011;3382;51.576;8.076;2023-03-14T07:44:29;1.23;;;0.60;;
6689;SDS011;3382;51.576;8.076;2023-03-14T07:46:55;1.10;;;0.70;;
6689;SDS011;3382;51.576;8.076;2023-03-14T07:49:21;2.37;;;0.43;;
6689;SDS011;3382;51.576;8.076;2023-03-14T07:51:47;1.33;;;1.03;;
6689;SDS011;3382;51.576;8.076;2023-03-14T07:54:13;0.60;;;0.60;;
6689;SDS011;3382;51.576;8.076;2023-03-14T07:56:39;0.50;;;0.50;;
6689;SDS011;3382;51.576;8.076;2023-03-14T07:59:04;2.63;;;0.70;;
6689;SDS011;3382;51.576;8.076;2023-03-14T08:01:30;2.47;;;0.90;;
6689;SDS011;3382;51.576;8.076;2023-03-14T08:03:55;0.97;;;0.50;;
6689;SDS011;3382;51.576;8.076;2023-03-14T08:06:21;1.17;;;0.77;;
6689;SDS011;3382;51.576;8.076;2023-03-14T08:08:47;0.53;;;0.53;;
6689;SDS011;3382;51.576;8.076;2023-03-14T08:11:12;1.53;;;0.40;;
6689;SDS011;3382;51.576;8.076;2023-03-14T08:13:38;0.40;;;0.40;;
6689;SDS011;3382;51.576;8.076;2023-03-14T08:16:04;0.80;;;0.60;;
6689;SDS011;3382;51.576;8.076;2023-03-14T08:18:30;0.67;;;0.57;;
6689;SDS011;3382;51.576;8.076;2023-03-14T08:20:56;0.60;;;0.60;;
6689;SDS011;3382;51.576;8.076;2023-03-14T08:23:21;0.50;;;0.50;;
6689;SDS011;3382;51.576;8.076;2023-03-14T08:25:50;0.60;;;0.60;;
6689;SDS011;3382;51.576;8.076;2023-03-14T08:28:17;0.53;;;0.53;;
6689;SDS011;3382;51.576;8.076;2023-03-14T08:30:43;2.13;;;1.00;;
6689;SDS011;3382;51.576;8.076;2023-03-14T08:33:09;0.50;;;0.50;;
6689;SDS011;3382;51.576;8.076;2023-03-14T08:35:34;1.10;;;0.70;;
6689;SDS011;3382;51.576;8.076;2023-03-14T08:38:02;1.27;;;0.50;;
6689;SDS011;3382;51.576;8.076;2023-03-14T08:40:27;2.73;;;0.90;;
6689;SDS011;3382;51.576;8.076;2023-03-14T08:42:53;0.50;;;0.50;;
6689;SDS011;3382;51.576;8.076;2023-03-14T08:45:18;0.87;;;0.50;;
6689;SDS011;3382;51.576;8.076;2023-03-14T08:47:44;0.50;;;0.50;;
6689;SDS011;3382;51.576;8.076;2023-03-14T08:50:11;0.57;;;0.57;;
6689;SDS011;3382;51.576;8.076;2023-03-14T08:52:37;0.50;;;0.50;;
6689;SDS011;3382;51.576;8.076;2023-03-14T08:55:05;1.30;;;0.83;;
6689;SDS011;3382;51.576;8.076;2023-03-14T08:57:32;1.00;;;0.80;;
6689;SDS011;3382;51.576;8.076;2023-03-14T08:59:57;0.50;;;0.50;;
6689;SDS011;3382;51.576;8.076;2023-03-14T09:02:23;1.73;;;0.63;;
6689;SDS011;3382;51.576;8.076;2023-03-14T09:04:50;1.37;;;0.50;;
6689;SDS011;3382;51.576;8.076;2023-03-14T09:07:17;0.67;;;0.67;;
6689;SDS011;3382;51.576;8.076;2023-03-14T09:09:43;0.50;;;0.50;;
6689;SDS011;3382;51.576;8.076;2023-03-14T09:12:08;0.90;;;0.80;;
6689;SDS011;3382;51.576;8.076;2023-03-14T09:14:34;0.53;;;0.53;;
6689;SDS011;3382;51.576;8.076;2023-03-14T09:17:00;0.47;;;0.40;;
6689;SDS011;3382;51.576;8.076;2023-03-14T09:19:27;2.87;;;1.00;;
6689;SDS011;3382;51.576;8.076;2023-03-14T09:21:52;0.50;;;0.50;;
6689;SDS011;3382;51.576;8.076;2023-03-14T09:24:19;0.73;;;0.50;;
6689;SDS011;3382;51.576;8.076;2023-03-14T09:26:45;2.47;;;0.73;;
6689;SDS011;3382;51.576;8.076;2023-03-14T09:29:11;0.50;;;0.50;;
6689;SDS011;3382;51.576;8.076;2023-03-14T09:31:40;1.03;;;0.90;;
6689;SDS011;3382;51.576;8.076;2023-03-14T09:34:05;0.63;;;0.50;;
6689;SDS011;3382;51.576;8.076;2023-03-14T09:36:31;1.37;;;0.80;;
6689;SDS011;3382;51.576;8.076;2023-03-14T09:38:56;0.87;;;0.70;;
6689;SDS011;3382;51.576;8.076;2023-03-14T09:41:29;0.73;;;0.50;;
6689;SDS011;3382;51.576;8.076;2023-03-14T09:44:04;0.80;;;0.60;;
6689;SDS011;3382;51.576;8.076;2023-03-14T09:46:47;0.87;;;0.77;;
6689;SDS011;3382;51.576;8.076;2023-03-14T09:49:21;2.17;;;0.77;;
6689;SDS011;3382;51.576;8.076;2023-03-14T09:51:56;0.60;;;0.60;;
6689;SDS011;3382;51.576;8.076;2023-03-14T09:57:06;0.60;;;0.60;;
6689;SDS011;3382;51.576;8.076;2023-03-14T09:59:43;1.30;;;0.70;;
6689;SDS011;3382;51.576;8.076;2023-03-14T10:02:11;0.57;;;0.57;;
6689;SDS011;3382;51.576;8.076;2023-03-14T10:04:44;0.60;;;0.60;;
6689;SDS011;3382;51.576;8.076;2023-03-14T10:07:12;0.50;;;0.50;;
6689;SDS011;3382;51.576;8.076;2023-03-14T10:09:45;0.50;;;0.50;;
6689;SDS011;3382;51.576;8.076;2023-03-14T10:12:13;0.77;;;0.73;;
6689;SDS011;3382;51.576;8.076;2023-03-14T10:14:44;0.50;;;0.50;;
6689;SDS011;3382;51.576;8.076;2023-03-14T10:17:15;0.60;;;0.60;;
6689;SDS011;3382;51.576;8.076;2023-03-14T10:20:00;1.00;;;0.93;;
6689;SDS011;3382;51.576;8.076;2023-03-14T10:22:29;0.70;;;0.70;;
6689;SDS011;3382;51.576;8.076;2023-03-14T10:25:03;5.60;;;0.87;;
6689;SDS011;3382;51.576;8.076;2023-03-14T10:27:31;1.60;;;0.60;;
6689;SDS011;3382;51.576;8.076;2023-03-14T10:30:00;2.53;;;0.80;;
6689;SDS011;3382;51.576;8.076;2023-03-14T10:32:35;0.77;;;0.60;;
6689;SDS011;3382;51.576;8.076;2023-03-14T10:35:04;1.17;;;0.83;;
6689;SDS011;3382;51.576;8.076;2023-03-14T10:37:50;0.93;;;0.60;;
6689;SDS011;3382;51.576;8.076;2023-03-14T10:40:26;2.63;;;1.00;;
6689;SDS011;3382;51.576;8.076;2023-03-14T10:42:57;1.93;;;0.60;;
6689;SDS011;3382;51.576;8.076;2023-03-14T10:48:20;0.83;;;0.57;;
6689;SDS011;3382;51.576;8.076;2023-03-14T10:51:10;0.70;;;0.50;;
6689;SDS011;3382;51.576;8.076;2023-03-14T10:56:44;0.90;;;0.80;;
6689;SDS011;3382;51.576;8.076;2023-03-14T10:59:13;0.57;;;0.57;;
6689;SDS011;3382;51.576;8.076;2023-03-14T11:09:53;0.57;;;0.57;;
6689;SDS011;3382;51.576;8.076;2023-03-14T11:15:29;0.70;;;0.50;;
6689;SDS011;3382;51.576;8.076;2023-03-14T11:31:00;0.50;;;0.50;;
6689;SDS011;3382;51.576;8.076;2023-03-14T11:36:33;0.40;;;0.40;;
6689;SDS011;3382;51.576;8.076;2023-03-14T11:39:03;0.53;;;0.53;;
6689;SDS011;3382;51.576;8.076;2023-03-14T11:41:37;0.40;;;0.40;;
6689;SDS011;3382;51.576;8.076;2023-03-14T11:46:57;0.50;;;0.50;;
6689;SDS011;3382;51.576;8.076;2023-03-14T11:49:36;1.33;;;0.77;;
6689;SDS011;3382;51.576;8.076;2023-03-14T11:55:00;0.53;;;0.53;;
6689;SDS011;3382;51.576;8.076;2023-03-14T11:57:32;0.60;;;0.60;;
6689;SDS011;3382;51.576;8.076;2023-03-14T12:00:00;0.60;;;0.60;;
6689;SDS011;3382;51.576;8.076;2023-03-14T12:05:58;2.17;;;1.80;;
6689;SDS011;3382;51.576;8.076;2023-03-14T12:08:24;4.13;;;0.90;;
6689;SDS011;3382;51.576;8.076;2023-03-14T12:13:47;3.50;;;1.17;;
6689;SDS011;3382;51.576;8.076;2023-03-14T12:18:49;4.70;;;1.33;;
6689;SDS011;3382;51.576;8.076;2023-03-14T12:21:16;2.10;;;1.23;;
6689;SDS011;3382;51.576;8.076;2023-03-14T12:26:26;5.80;;;1.50;;
6689;SDS011;3382;51.576;8.076;2023-03-14T12:39:16;3.30;;;1.47;;
6689;SDS011;3382;51.576;8.076;2023-03-14T12:42:05;3.00;;;1.20;;
6689;SDS011;3382;51.576;8.076;2023-03-14T12:49:53;3.43;;;2.33;;
6689;SDS011;3382;51.576;8.076;2023-03-14T12:52:33;5.73;;;1.80;;
6689;SDS011;3382;51.576;8.076;2023-03-14T12:55:40;6.50;;;1.63;;
6689;SDS011;3382;51.576;8.076;2023-03-14T13:01:26;3.53;;;1.40;;
6689;SDS011;3382;51.576;8.076;2023-03-14T13:03:54;3.57;;;1.50;;
6689;SDS011;3382;51.576;8.076;2023-03-14T13:12:17;6.10;;;1.70;;
6689;SDS011;3382;51.576;8.076;2023-03-14T13:14:44;3.03;;;1.33;;
6689;SDS011;3382;51.576;8.076;2023-03-14T13:17:15;7.17;;;1.87;;
6689;SDS011;3382;51.576;8.076;2023-03-14T13:19:48;7.07;;;1.97;;
6689;SDS011;3382;51.576;8.076;2023-03-14T13:22:20;8.00;;;2.07;;
6689;SDS011;3382;51.576;8.076;2023-03-14T13:24:57;5.70;;;1.87;;
6689;SDS011;3382;51.576;8.076;2023-03-14T13:27:34;5.67;;;2.40;;
6689;SDS011;3382;51.576;8.076;2023-03-14T13:30:14;6.83;;;1.60;;
6689;SDS011;3382;51.576;8.076;2023-03-14T13:32:48;5.70;;;2.13;;
6689;SDS011;3382;51.576;8.076;2023-03-14T13:37:56;5.97;;;1.60;;
6689;SDS011;3382;51.576;8.076;2023-03-14T13:40:30;6.00;;;1.80;;
6689;SDS011;3382;51.576;8.076;2023-03-14T13:45:48;4.73;;;1.80;;
6689;SDS011;3382;51.576;8.076;2023-03-14T13:48:18;9.20;;;2.03;;
6689;SDS011;3382;51.576;8.076;2023-03-14T13:51:17;6.90;;;2.13;;
6689;SDS011;3382;51.576;8.076;2023-03-14T13:56:15;8.80;;;2.20;;
6689;SDS011;3382;51.576;8.076;2023-03-14T13:58:42;2.27;;;1.10;;
6689;SDS011;3382;51.576;8.076;2023-03-14T14:03:42;4.97;;;1.80;;
6689;SDS011;3382;51.576;8.076;2023-03-14T14:06:16;7.27;;;2.00;;
6689;SDS011;3382;51.576;8.076;2023-03-14T14:08:48;8.07;;;2.80;;
6689;SDS011;3382;51.576;8.076;2023-03-14T14:11:29;7.93;;;2.57;;
6689;SDS011;3382;51.576;8.076;2023-03-14T14:14:00;9.90;;;2.43;;
6689;SDS011;3382;51.576;8.076;2023-03-14T14:16:26;7.30;;;2.47;;
6689;SDS011;3382;51.576;8.076;2023-03-14T14:18:54;8.27;;;2.17;;
6689;SDS011;3382;51.576;8.076;2023-03-14T14:21:22;10.00;;;3.20;;
6689;SDS011;3382;51.576;8.076;2023-03-14T14:23:48;11.47;;;2.53;;
6689;SDS011;3382;51.576;8.076;2023-03-14T14:26:15;11.53;;;2.50;;
6689;SDS011;3382;51.576;8.076;2023-03-14T14:28:42;7.90;;;2.30;;
6689;SDS011;3382;51.576;8.076;2023-03-14T14:33:41;9.67;;;2.40;;
6689;SDS011;3382;51.576;8.076;2023-03-14T14:36:24;10.50;;;2.60;;
6689;SDS011;3382;51.576;8.076;2023-03-14T14:38:54;12.60;;;2.40;;
6689;SDS011;3382;51.576;8.076;2023-03-14T14:41:26;8.27;;;2.50;;
6689;SDS011;3382;51.576;8.076;2023-03-14T14:43:55;12.03;;;2.87;;
6689;SDS011;3382;51.576;8.076;2023-03-14T14:46:22;8.07;;;2.70;;
6689;SDS011;3382;51.576;8.076;2023-03-14T14:48:54;7.03;;;2.50;;
6689;SDS011;3382;51.576;8.076;2023-03-14T14:51:23;6.17;;;2.10;;
6689;SDS011;3382;51.576;8.076;2023-03-14T14:54:01;2.73;;;1.10;;
6689;SDS011;3382;51.576;8.076;2023-03-14T14:56:39;0.60;;;0.60;;
6689;SDS011;3382;51.576;8.076;2023-03-14T14:59:05;8.17;;;1.80;;
6689;SDS011;3382;51.576;8.076;2023-03-14T15:01:42;16.57;;;3.03;;
6689;SDS011;3382;51.576;8.076;2023-03-14T15:04:09;16.67;;;4.07;;
6689;SDS011;3382;51.576;8.076;2023-03-14T15:06:38;11.03;;;3.13;;
6689;SDS011;3382;51.576;8.076;2023-03-14T15:09:08;12.33;;;3.50;;
6689;SDS011;3382;51.576;8.076;2023-03-14T15:11:35;9.53;;;2.33;;
6689;SDS011;3382;51.576;8.076;2023-03-14T15:14:04;5.03;;;1.33;;
6689;SDS011;3382;51.576;8.076;2023-03-14T15:16:31;5.47;;;1.77;;
6689;SDS011;3382;51.576;8.076;2023-03-14T15:18:58;6.40;;;1.83;;
6689;SDS011;3382;51.576;8.076;2023-03-14T15:21:27;4.53;;;1.43;;
6689;SDS011;3382;51.576;8.076;2023-03-14T15:23:53;2.27;;;1.03;;
6689;SDS011;3382;51.576;8.076;2023-03-14T15:26:24;8.60;;;2.57;;
6689;SDS011;3382;51.576;8.076;2023-03-14T15:28:51;3.23;;;1.23;;
6689;SDS011;3382;51.576;8.076;2023-03-14T15:31:17;1.67;;;1.10;;
6689;SDS011;3382;51.576;8.076;2023-03-14T15:33:44;4.67;;;1.37;;
6689;SDS011;3382;51.576;8.076;2023-03-14T15:36:43;5.80;;;1.33;;
6689;SDS011;3382;51.576;8.076;2023-03-14T15:39:03;2.63;;;1.57;;
6689;SDS011;3382;51.576;8.076;2023-03-14T15:41:30;1.93;;;1.07;;
6689;SDS011;3382;51.576;8.076;2023-03-14T15:43:56;4.53;;;1.53;;
6689;SDS011;3382;51.576;8.076;2023-03-14T15:46:22;8.27;;;2.40;;
6689;SDS011;3382;51.576;8.076;2023-03-14T15:48:49;4.40;;;2.03;;
6689;SDS011;3382;51.576;8.076;2023-03-14T15:51:15;7.93;;;2.40;;
6689;SDS011;3382;51.576;8.076;2023-03-14T15:53:41;6.20;;;2.20;;
6689;SDS011;3382;51.576;8.076;2023-03-14T15:56:11;9.77;;;2.67;;
6689;SDS011;3382;51.576;8.076;2023-03-14T15:58:41;8.50;;;2.40;;
6689;SDS011;3382;51.576;8.076;2023-03-14T16:01:11;7.40;;;2.57;;
6689;SDS011;3382;51.576;8.076;2023-03-14T16:03:38;7.83;;;2.60;;
6689;SDS011;3382;51.576;8.076;2023-03-14T16:06:04;5.90;;;1.90;;
6689;SDS011;3382;51.576;8.076;2023-03-14T16:08:30;14.20;;;2.73;;
6689;SDS011;3382;51.576;8.076;2023-03-14T16:10:59;8.77;;;2.33;;
6689;SDS011;3382;51.576;8.076;2023-03-14T16:13:25;7.50;;;1.83;;
6689;SDS011;3382;51.576;8.076;2023-03-14T16:15:59;11.47;;;2.97;;
6689;SDS011;3382;51.576;8.076;2023-03-14T16:18:29;11.07;;;2.10;;
6689;SDS011;3382;51.576;8.076;2023-03-14T16:20:58;6.70;;;1.90;;
6689;SDS011;3382;51.576;8.076;2023-03-14T16:23:25;7.77;;;2.43;;
6689;SDS011;3382;51.576;8.076;2023-03-14T16:25:52;9.87;;;2.50;;
6689;SDS011;3382;51.576;8.076;2023-03-14T16:28:19;9.33;;;2.13;;
6689;SDS011;3382;51.576;8.076;2023-03-14T16:30:45;6.07;;;1.80;;
6689;SDS011;3382;51.576;8.076;2023-03-14T16:33:11;4.13;;;2.20;;
6689;SDS011;3382;51.576;8.076;2023-03-14T16:35:40;5.03;;;1.73;;
6689;SDS011;3382;51.576;8.076;2023-03-14T16:38:17;6.53;;;1.60;;
6689;SDS011;3382;51.576;8.076;2023-03-14T16:40:42;4.57;;;1.33;;
6689;SDS011;3382;51.576;8.076;2023-03-14T16:43:08;5.47;;;1.70;;
6689;SDS011;3382;51.576;8.076;2023-03-14T16:45:35;4.70;;;1.70;;
6689;SDS011;3382;51.576;8.076;2023-03-14T16:48:01;5.77;;;1.83;;
6689;SDS011;3382;51.576;8.076;2023-03-14T16:50:27;9.47;;;2.47;;
6689;SDS011;3382;51.576;8.076;2023-03-14T16:52:54;4.63;;;1.80;;
6689;SDS011;3382;51.576;8.076;2023-03-14T16:55:19;5.17;;;1.60;;
6689;SDS011;3382;51.576;8.076;2023-03-14T16:57:45;6.73;;;2.00;;
6689;SDS011;3382;51.576;8.076;2023-03-14T17:00:11;7.03;;;1.93;;
6689;SDS011;3382;51.576;8.076;2023-03-14T17:02:37;4.40;;;1.80;;